Time;durP1;ratioP1;P1;durP2;ratioP2;P2;SDS_P1;SDS_P2;PMS_P1;PMS_P2;Temp;Humidity;BMP_temperature;BMP_pressure;BME280_temperature;BME280_humidity;BME280_pressure;Samples;Min_cycle;Max_cycle;Signal;HPM_P1;HPM_P2
2022/02/24 00:00:57;;;;;;;5.38;4.20;;;7.20;74.90;;;;;;4868185;29;20212;-76
2022/02/24 00:03:28;;;;;;;5.43;4.38;;;7.20;74.90;;;;;;4867557;29;20239;-78
2022/02/24 00:05:56;;;;;;;5.97;4.38;;;7.30;75.00;;;;;;4867141;29;20206;-77
2022/02/24 00:08:23;;;;;;;5.55;3.65;;;7.40;75.00;;;;;;4864899;29;20790;-76
2022/02/24 00:10:50;;;;;;;7.15;4.13;;;7.30;75.00;;;;;;4865141;29;20227;-76
2022/02/24 00:13:17;;;;;;;6.03;4.10;;;7.30;75.00;;;;;;4866304;29;20243;-77
2022/02/24 00:15:44;;;;;;;6.78;4.35;;;7.40;75.00;;;;;;4866252;29;20215;-77
2022/02/24 00:18:12;;;;;;;8.45;4.40;;;7.40;75.00;;;;;;4865450;29;20232;-76
2022/02/24 00:20:39;;;;;;;7.22;3.70;;;7.40;75.00;;;;;;4864816;29;20213;-76
2022/02/24 00:23:06;;;;;;;6.70;4.30;;;7.50;75.10;;;;;;4867489;29;20304;-77
2022/02/24 00:25:33;;;;;;;7.05;4.70;;;7.60;74.50;;;;;;4865199;29;20221;-77
2022/02/24 00:28:00;;;;;;;5.03;4.20;;;7.60;73.80;;;;;;4864617;29;20213;-76
2022/02/24 00:30:28;;;;;;;5.45;3.60;;;7.60;73.40;;;;;;4863885;29;20222;-77
2022/02/24 00:32:55;;;;;;;4.68;4.10;;;7.60;73.30;;;;;;4864489;29;20294;-78
2022/02/24 00:35:24;;;;;;;6.05;4.30;;;7.60;73.20;;;;;;4864557;29;20226;-76
2022/02/24 00:37:50;;;;;;;4.50;4.10;;;7.60;73.10;;;;;;4866288;29;20231;-77
2022/02/24 00:40:17;;;;;;;7.03;4.10;;;7.60;73.30;;;;;;4869589;29;20240;-76
2022/02/24 00:42:44;;;;;;;4.80;3.55;;;7.60;73.10;;;;;;4873913;29;20267;-76
2022/02/24 00:45:11;;;;;;;4.38;3.38;;;7.60;73.10;;;;;;4874040;29;20222;-76
2022/02/24 00:47:38;;;;;;;5.80;4.18;;;7.60;73.00;;;;;;4879198;29;20218;-76
2022/02/24 00:50:06;;;;;;;5.65;3.75;;;7.70;72.80;;;;;;4877798;29;20228;-77
2022/02/24 00:52:34;;;;;;;7.10;4.10;;;7.70;72.40;;;;;;4874630;29;20323;-76
2022/02/24 00:55:01;;;;;;;7.45;3.67;;;7.80;72.00;;;;;;4868539;29;20211;-77
2022/02/24 00:57:28;;;;;;;6.18;3.53;;;7.80;71.60;;;;;;4874864;29;20243;-77
2022/02/24 00:59:58;;;;;;;6.95;3.67;;;7.80;71.20;;;;;;4876583;29;20262;-75
2022/02/24 01:02:25;;;;;;;10.70;4.32;;;7.90;71.20;;;;;;4862789;29;20213;-76
2022/02/24 01:04:52;;;;;;;7.03;4.47;;;7.90;70.70;;;;;;4862803;29;20295;-75
2022/02/24 01:07:19;;;;;;;4.85;3.92;;;7.90;70.80;;;;;;4865122;29;20199;-76
2022/02/24 01:09:47;;;;;;;5.50;3.35;;;7.90;70.80;;;;;;4854002;29;20210;-76
2022/02/24 01:12:14;;;;;;;4.10;3.53;;;7.90;70.40;;;;;;4854781;29;20294;-77
2022/02/24 01:14:41;;;;;;;3.58;3.00;;;8.00;69.90;;;;;;4864793;29;20295;-77
2022/02/24 01:17:08;;;;;;;4.70;3.50;;;8.00;69.70;;;;;;4865802;29;20211;-77
2022/02/24 01:19:35;;;;;;;3.45;3.15;;;8.00;69.30;;;;;;4865801;29;20249;-76
2022/02/24 01:22:02;;;;;;;4.60;3.72;;;8.00;68.60;;;;;;4863845;29;20317;-76
2022/02/24 01:24:29;;;;;;;6.53;3.67;;;8.00;68.80;;;;;;4891824;24;20235;-73
2022/02/24 01:26:57;;;;;;;5.50;4.15;;;8.00;68.70;;;;;;4885047;29;20598;-72
2022/02/24 01:29:24;;;;;;;10.02;3.53;;;8.00;68.70;;;;;;4885572;29;20196;-73
2022/02/24 01:31:50;;;;;;;5.53;3.90;;;7.90;68.90;;;;;;4884188;29;20272;-73
2022/02/24 01:34:19;;;;;;;4.47;3.65;;;8.00;69.10;;;;;;4884511;29;20683;-74
2022/02/24 01:36:46;;;;;;;4.70;3.70;;;8.00;69.00;;;;;;4877593;29;20213;-73
2022/02/24 01:39:13;;;;;;;6.43;4.38;;;8.00;68.90;;;;;;4867311;29;20237;-73
2022/02/24 01:41:40;;;;;;;6.97;4.60;;;7.90;69.60;;;;;;4866101;29;20288;-73
2022/02/24 01:44:13;;;;;;;7.57;4.50;;;7.90;69.20;;;;;;4866779;29;20684;-73
2022/02/24 01:46:41;;;;;;;7.57;5.53;;;7.90;69.30;;;;;;4869695;29;20205;-73
2022/02/24 01:49:09;;;;;;;7.82;4.72;;;8.00;69.30;;;;;;4890254;29;20215;-73
2022/02/24 01:51:37;;;;;;;7.25;4.45;;;8.00;69.70;;;;;;4870028;29;20215;-72
2022/02/24 01:54:05;;;;;;;5.97;3.78;;;8.00;68.70;;;;;;4881778;29;20242;-72
2022/02/24 01:56:33;;;;;;;5.60;4.03;;;8.00;69.10;;;;;;4893210;29;20249;-72
2022/02/24 01:59:00;;;;;;;6.35;4.35;;;8.00;69.30;;;;;;4890152;29;20262;-73
2022/02/24 02:01:29;;;;;;;7.35;3.90;;;8.00;69.50;;;;;;4880748;29;20261;-74
2022/02/24 02:03:56;;;;;;;4.60;3.60;;;8.00;69.70;;;;;;4869034;29;20234;-73
2022/02/24 02:06:24;;;;;;;7.28;4.40;;;7.90;69.70;;;;;;4865761;29;20214;-74
2022/02/24 02:08:51;;;;;;;5.82;4.45;;;7.90;70.00;;;;;;4861659;29;20216;-73
2022/02/24 02:11:18;;;;;;;6.32;4.18;;;7.80;70.20;;;;;;4862081;29;20233;-72
2022/02/24 02:13:44;;;;;;;6.22;4.10;;;7.80;70.90;;;;;;4862330;29;20237;-73
2022/02/24 02:16:12;;;;;;;5.03;3.85;;;7.80;70.90;;;;;;4861443;29;20205;-73
2022/02/24 02:18:41;;;;;;;7.63;3.95;;;7.90;70.60;;;;;;4867467;29;20293;-73
2022/02/24 02:21:10;;;;;;;4.55;3.45;;;7.90;70.60;;;;;;4879639;29;20222;-73
2022/02/24 02:23:37;;;;;;;5.72;4.07;;;7.90;70.20;;;;;;4878876;29;20241;-73
2022/02/24 02:26:04;;;;;;;6.05;3.78;;;7.90;70.30;;;;;;4873278;29;20208;-73
2022/02/24 02:28:31;;;;;;;4.78;3.83;;;7.80;70.10;;;;;;4861247;29;20244;-73
2022/02/24 02:30:57;;;;;;;3.92;3.50;;;7.90;70.30;;;;;;4880662;29;20211;-73
2022/02/24 02:33:24;;;;;;;5.65;3.30;;;7.90;70.00;;;;;;4861352;29;20232;-72
2022/02/24 02:35:51;;;;;;;4.47;3.83;;;7.90;70.00;;;;;;4861172;29;20212;-73
2022/02/24 02:38:19;;;;;;;3.80;2.95;;;7.90;70.00;;;;;;4860646;29;20215;-73
2022/02/24 02:40:46;;;;;;;3.83;2.90;;;7.90;70.40;;;;;;4874245;29;20215;-73
2022/02/24 02:43:13;;;;;;;4.65;3.67;;;7.90;70.60;;;;;;4875139;29;20382;-73
2022/02/24 02:45:40;;;;;;;4.60;3.45;;;7.80;71.10;;;;;;4865968;29;20218;-73
2022/02/24 02:48:07;;;;;;;6.43;3.47;;;7.90;70.50;;;;;;4874161;29;20211;-72
2022/02/24 02:50:35;;;;;;;6.57;4.50;;;7.90;70.40;;;;;;4873556;29;20248;-73
2022/02/24 02:53:02;;;;;;;10.77;3.88;;;7.80;70.50;;;;;;4884410;29;20267;-72
2022/02/24 02:55:31;;;;;;;6.65;3.70;;;7.90;70.40;;;;;;4887433;29;20218;-73
2022/02/24 02:57:58;;;;;;;4.90;3.58;;;7.90;70.60;;;;;;4882957;29;20306;-72
2022/02/24 03:00:25;;;;;;;5.65;3.33;;;7.80;70.60;;;;;;4882628;29;20326;-73
2022/02/24 03:02:52;;;;;;;6.78;3.63;;;7.80;71.30;;;;;;4881899;29;20229;-74
2022/02/24 03:05:18;;;;;;;5.63;3.50;;;7.80;71.40;;;;;;4865319;29;20239;-73
2022/02/24 03:07:45;;;;;;;4.20;3.30;;;7.80;71.50;;;;;;4880005;29;20274;-73
2022/02/24 03:10:12;;;;;;;6.68;3.63;;;7.90;71.40;;;;;;4891534;29;20351;-73
2022/02/24 03:12:40;;;;;;;4.45;3.70;;;7.90;71.10;;;;;;4868285;29;20235;-72
2022/02/24 03:15:13;;;;;;;5.20;4.13;;;7.90;70.90;;;;;;4877906;29;20278;-72
2022/02/24 03:17:40;;;;;;;5.07;3.85;;;7.90;71.00;;;;;;4878818;29;20242;-73
2022/02/24 03:20:07;;;;;;;8.27;3.65;;;7.90;70.80;;;;;;4869861;29;20227;-73
2022/02/24 03:22:34;;;;;;;5.47;3.72;;;7.90;71.10;;;;;;4864000;29;20606;-73
2022/02/24 03:25:01;;;;;;;6.00;3.25;;;7.90;71.20;;;;;;4864272;29;20220;-73
2022/02/24 03:27:28;;;;;;;4.95;3.63;;;7.90;71.80;;;;;;4863769;29;20220;-72
2022/02/24 03:29:57;;;;;;;5.35;3.80;;;8.00;71.00;;;;;;4878157;29;20313;-73
2022/02/24 03:32:24;;;;;;;5.60;3.20;;;8.00;70.60;;;;;;4870105;29;20275;-73
2022/02/24 03:34:52;;;;;;;6.22;4.00;;;7.90;70.40;;;;;;4865857;29;20213;-73
2022/02/24 03:37:18;;;;;;;5.70;4.20;;;7.90;70.60;;;;;;4882397;29;20691;-72
2022/02/24 03:39:45;;;;;;;5.30;3.40;;;7.90;70.60;;;;;;4869970;29;20241;-73
2022/02/24 03:42:12;;;;;;;8.90;3.50;;;7.80;71.00;;;;;;4863421;29;20211;-73
2022/02/24 03:44:39;;;;;;;4.30;3.40;;;7.80;71.20;;;;;;4863842;29;20325;-73
2022/02/24 03:47:07;;;;;;;4.65;3.35;;;7.80;71.60;;;;;;4876005;29;20213;-73
2022/02/24 03:49:34;;;;;;;5.43;3.47;;;7.70;72.30;;;;;;4882003;29;20558;-72
2022/02/24 03:52:01;;;;;;;3.25;2.95;;;7.70;72.60;;;;;;4882282;29;20259;-72
2022/02/24 03:54:28;;;;;;;3.45;3.15;;;7.70;72.50;;;;;;4869553;29;20309;-73
2022/02/24 03:56:55;;;;;;;6.75;3.15;;;7.70;73.30;;;;;;4864092;29;20213;-73
2022/02/24 03:59:22;;;;;;;5.53;3.47;;;7.70;73.00;;;;;;4863820;29;20235;-72
2022/02/24 04:01:49;;;;;;;5.57;3.17;;;7.60;72.60;;;;;;4864658;29;20211;-72
2022/02/24 04:04:17;;;;;;;4.80;3.50;;;7.70;73.00;;;;;;4880198;29;20236;-72
2022/02/24 04:06:44;;;;;;;5.85;3.22;;;7.70;72.60;;;;;;4885002;29;20266;-73
2022/02/24 04:09:11;;;;;;;4.20;3.28;;;7.70;72.30;;;;;;4871486;29;20766;-73
2022/02/24 04:11:37;;;;;;;4.03;3.47;;;7.60;72.50;;;;;;4873567;29;20234;-73
2022/02/24 04:14:06;;;;;;;4.28;3.65;;;7.70;72.50;;;;;;4879086;29;20259;-73
2022/02/24 04:16:32;;;;;;;3.83;2.95;;;7.60;72.20;;;;;;4882493;29;20201;-72
2022/02/24 04:19:00;;;;;;;3.97;3.00;;;7.60;72.60;;;;;;4886733;29;20209;-72
2022/02/24 04:21:28;;;;;;;4.70;3.40;;;7.60;71.90;;;;;;4891154;29;20213;-72
2022/02/24 04:23:55;;;;;;;4.10;2.70;;;7.70;71.20;;;;;;4888927;29;20259;-73
2022/02/24 04:26:22;;;;;;;3.85;3.38;;;7.60;71.30;;;;;;4869091;29;20210;-73
2022/02/24 04:28:49;;;;;;;2.88;2.67;;;7.60;71.70;;;;;;4871514;29;20215;-73
2022/02/24 04:31:16;;;;;;;4.53;2.95;;;7.60;70.70;;;;;;4881101;29;20222;-72
2022/02/24 04:33:42;;;;;;;3.67;2.60;;;7.60;71.10;;;;;;4880686;29;20234;-73
2022/02/24 04:36:09;;;;;;;5.32;3.33;;;7.60;70.80;;;;;;4872223;29;20279;-73
2022/02/24 04:38:38;;;;;;;3.83;3.00;;;7.60;70.90;;;;;;4862853;29;20215;-73
2022/02/24 04:41:05;;;;;;;4.45;2.80;;;7.50;70.60;;;;;;4879865;29;20232;-73
2022/02/24 04:43:32;;;;;;;3.05;2.75;;;7.50;70.80;;;;;;4880319;29;20257;-73
2022/02/24 04:45:58;;;;;;;4.35;3.20;;;7.50;71.10;;;;;;4880901;29;20210;-73
2022/02/24 04:48:25;;;;;;;3.40;2.92;;;7.40;71.20;;;;;;4880886;29;20222;-73
2022/02/24 04:50:52;;;;;;;5.40;2.90;;;7.40;71.50;;;;;;4880975;29;20265;-72
2022/02/24 04:53:19;;;;;;;3.20;2.90;;;7.40;72.00;;;;;;4880726;29;20229;-72
2022/02/24 04:55:48;;;;;;;7.65;3.72;;;7.40;72.20;;;;;;4880928;29;20633;-72
2022/02/24 04:58:15;;;;;;;3.97;3.30;;;7.40;72.20;;;;;;4867144;29;20208;-72
2022/02/24 05:00:42;;;;;;;6.00;3.70;;;7.40;72.60;;;;;;4866234;29;20240;-72
2022/02/24 05:03:09;;;;;;;4.53;4.13;;;7.30;73.00;;;;;;4882316;29;20295;-73
2022/02/24 05:05:36;;;;;;;4.60;3.35;;;7.30;73.60;;;;;;4881117;29;20213;-73
2022/02/24 05:08:03;;;;;;;7.03;3.80;;;7.30;74.90;;;;;;4882205;29;20212;-73
2022/02/24 05:10:30;;;;;;;4.13;3.72;;;7.30;75.00;;;;;;4869940;29;20207;-72
2022/02/24 05:12:59;;;;;;;5.53;3.47;;;7.30;75.00;;;;;;4862088;29;20240;-73
2022/02/24 05:15:26;;;;;;;11.85;3.90;;;7.30;75.00;;;;;;4873690;29;20283;-73
2022/02/24 05:17:53;;;;;;;3.20;2.75;;;7.30;75.00;;;;;;4879197;29;20222;-74
2022/02/24 05:20:20;;;;;;;3.92;3.35;;;7.20;74.90;;;;;;4862592;29;20231;-73
2022/02/24 05:22:47;;;;;;;4.20;3.20;;;7.20;74.90;;;;;;4873040;29;20285;-73
2022/02/24 05:25:15;;;;;;;5.57;3.40;;;7.10;74.80;;;;;;4881149;29;20238;-72
2022/02/24 05:27:43;;;;;;;5.88;3.50;;;7.00;75.80;;;;;;4881339;29;20262;-72
2022/02/24 05:30:14;;;;;;;5.22;3.85;;;7.00;75.90;;;;;;4881239;29;20228;-73
2022/02/24 05:32:42;;;;;;;4.95;3.42;;;6.90;76.50;;;;;;4866400;29;20556;-73
2022/02/24 05:35:09;;;;;;;4.40;3.13;;;6.80;77.30;;;;;;4862792;29;20221;-73
2022/02/24 05:37:36;;;;;;;7.20;3.33;;;6.70;78.30;;;;;;4862802;29;20219;-73
2022/02/24 05:40:05;;;;;;;4.47;3.80;;;6.60;78.60;;;;;;4862207;29;20722;-73
2022/02/24 05:42:32;;;;;;;4.88;3.75;;;6.60;79.70;;;;;;4861838;29;20218;-73
2022/02/24 05:44:59;;;;;;;4.60;3.83;;;6.60;80.30;;;;;;4881080;29;20214;-73
2022/02/24 05:47:27;;;;;;;4.80;3.30;;;6.50;81.10;;;;;;4882490;29;20217;-73
2022/02/24 05:49:54;;;;;;;5.47;3.83;;;6.50;81.30;;;;;;4877568;29;20210;-74
2022/02/24 05:52:21;;;;;;;7.38;4.00;;;6.40;82.40;;;;;;4873607;29;20296;-73
2022/02/24 05:54:48;;;;;;;4.15;3.75;;;6.40;82.70;;;;;;4879947;29;20304;-73
2022/02/24 05:57:15;;;;;;;6.13;3.30;;;6.30;82.60;;;;;;4863517;29;20216;-73
2022/02/24 05:59:41;;;;;;;4.07;3.22;;;6.30;83.80;;;;;;4867741;29;20693;-72
2022/02/24 06:02:08;;;;;;;4.57;3.53;;;6.30;84.30;;;;;;4879878;29;20232;-73
2022/02/24 06:04:36;;;;;;;3.80;3.08;;;6.30;85.10;;;;;;4867996;29;20234;-73
2022/02/24 06:07:04;;;;;;;6.43;3.55;;;6.30;86.60;;;;;;4856070;29;20215;-73
2022/02/24 06:09:31;;;;;;;4.55;3.45;;;6.30;86.50;;;;;;4865334;29;20285;-73
2022/02/24 06:11:58;;;;;;;5.45;3.22;;;6.40;86.70;;;;;;4880782;29;20221;-73
2022/02/24 06:14:24;;;;;;;6.35;3.30;;;6.50;85.90;;;;;;4873059;29;20725;-72
2022/02/24 06:16:51;;;;;;;8.85;3.30;;;6.50;84.80;;;;;;4862900;29;20228;-73
2022/02/24 06:19:18;;;;;;;6.82;3.40;;;6.50;84.10;;;;;;4862162;29;20642;-73
2022/02/24 06:21:48;;;;;;;4.80;3.22;;;6.50;82.90;;;;;;4874667;29;20228;-73
2022/02/24 06:24:15;;;;;;;5.28;3.42;;;6.50;82.70;;;;;;4873225;29;20233;-73
2022/02/24 06:26:41;;;;;;;4.32;3.08;;;6.40;82.60;;;;;;4862106;29;20218;-73
2022/02/24 06:29:08;;;;;;;5.22;3.17;;;6.40;82.60;;;;;;4886158;29;20216;-73
2022/02/24 06:31:37;;;;;;;3.70;2.85;;;6.50;82.70;;;;;;4894153;29;20208;-73
2022/02/24 06:34:04;;;;;;;4.65;3.17;;;6.40;81.90;;;;;;4869500;29;20236;-73
2022/02/24 06:36:31;;;;;;;4.22;3.45;;;6.40;81.60;;;;;;4877340;29;20212;-73
2022/02/24 06:38:59;;;;;;;3.67;2.55;;;6.30;81.50;;;;;;4874371;29;20579;-73
2022/02/24 06:41:26;;;;;;;3.55;2.60;;;6.30;82.20;;;;;;4861704;29;20265;-73
2022/02/24 06:43:53;;;;;;;5.90;3.22;;;6.30;82.10;;;;;;4864975;29;20225;-73
2022/02/24 06:46:20;;;;;;;5.40;3.58;;;6.20;82.30;;;;;;4879205;29;20714;-73
2022/02/24 06:48:48;;;;;;;3.72;2.78;;;6.30;82.50;;;;;;4842977;29;20218;-73
2022/02/24 06:51:15;;;;;;;4.32;2.95;;;6.40;82.20;;;;;;4852480;29;20289;-74
2022/02/24 06:53:42;;;;;;;5.75;3.40;;;6.40;81.30;;;;;;4860956;29;20235;-74
2022/02/24 06:56:10;;;;;;;8.95;3.53;;;6.40;81.60;;;;;;4860550;29;20213;-73
2022/02/24 06:58:37;;;;;;;4.28;2.97;;;6.50;80.60;;;;;;4869946;29;20205;-74
2022/02/24 07:01:04;;;;;;;6.38;3.72;;;6.50;80.50;;;;;;4878259;29;20317;-73
2022/02/24 07:03:31;;;;;;;5.95;2.95;;;6.60;80.10;;;;;;4860812;29;20252;-73
2022/02/24 07:05:58;;;;;;;5.47;3.60;;;6.60;80.00;;;;;;4869482;29;20273;-73
2022/02/24 07:08:25;;;;;;;3.60;3.30;;;6.60;78.70;;;;;;4878781;29;20653;-73
2022/02/24 07:10:52;;;;;;;4.00;3.03;;;6.70;78.80;;;;;;4859760;29;20630;-74
2022/02/24 07:13:20;;;;;;;5.40;3.65;;;6.80;78.80;;;;;;4870047;29;20726;-72
2022/02/24 07:15:47;;;;;;;6.10;4.40;;;6.90;77.40;;;;;;4879300;29;20302;-73
2022/02/24 07:18:13;;;;;;;4.90;3.63;;;6.90;77.20;;;;;;4868401;29;20211;-72
2022/02/24 07:20:40;;;;;;;5.40;4.00;;;7.10;76.50;;;;;;4859503;29;20258;-72
2022/02/24 07:23:07;;;;;;;8.00;3.90;;;7.20;75.30;;;;;;4868465;29;20238;-74
2022/02/24 07:25:34;;;;;;;4.85;3.50;;;7.30;75.00;;;;;;4878528;29;20241;-75
2022/02/24 07:28:01;;;;;;;4.85;3.30;;;7.40;74.40;;;;;;4870476;29;20219;-74
2022/02/24 07:30:30;;;;;;;5.78;3.30;;;7.50;72.60;;;;;;4856691;29;20300;-74
2022/02/24 07:32:56;;;;;;;5.00;3.10;;;7.60;71.80;;;;;;4859313;29;20606;-73
2022/02/24 07:35:23;;;;;;;2.97;2.67;;;7.70;71.00;;;;;;4857648;29;20213;-73
2022/02/24 07:37:50;;;;;;;2.65;2.45;;;7.80;69.80;;;;;;4863392;29;20307;-74
2022/02/24 07:40:17;;;;;;;7.00;3.58;;;7.80;68.30;;;;;;4861033;29;20241;-73
2022/02/24 07:42:44;;;;;;;7.95;2.95;;;7.90;67.90;;;;;;4863249;29;20299;-74
2022/02/24 07:45:11;;;;;;;3.08;2.80;;;8.00;66.80;;;;;;4862734;29;20216;-73
2022/02/24 07:47:39;;;;;;;3.78;3.38;;;8.10;67.00;;;;;;4862769;29;20216;-73
2022/02/24 07:50:13;;;;;;;7.45;2.90;;;8.20;67.00;;;;;;4862815;29;20645;-74
2022/02/24 07:52:40;;;;;;;4.70;3.10;;;8.30;66.40;;;;;;4862235;29;20212;-73
2022/02/24 07:55:08;;;;;;;3.50;2.92;;;8.40;65.50;;;;;;4862438;29;20712;-73
2022/02/24 07:57:35;;;;;;;4.78;2.95;;;8.40;64.50;;;;;;4862863;29;20214;-74
2022/02/24 08:00:02;;;;;;;5.38;2.90;;;8.50;64.10;;;;;;4863131;29;20208;-73
2022/02/24 08:02:29;;;;;;;4.35;2.70;;;8.50;63.70;;;;;;4862920;29;20220;-73
2022/02/24 08:04:57;;;;;;;3.63;3.25;;;8.60;62.90;;;;;;4862503;29;20240;-72
2022/02/24 08:07:24;;;;;;;3.40;2.70;;;8.60;62.70;;;;;;4856848;29;20230;-74
2022/02/24 08:09:51;;;;;;;3.45;3.00;;;8.60;62.30;;;;;;4865985;29;20245;-72
2022/02/24 08:15:02;;;;;;;4.97;3.65;;;8.50;62.30;;;;;;4865156;29;20203;-74
2022/02/24 08:17:29;;;;;;;4.50;3.20;;;8.50;62.80;;;;;;4864551;29;20659;-74
2022/02/24 08:19:58;;;;;;;5.57;3.45;;;8.70;62.30;;;;;;4867503;29;20286;-74
2022/02/24 08:22:25;;;;;;;3.83;3.28;;;8.70;62.10;;;;;;4872531;29;20228;-74
2022/02/24 08:24:52;;;;;;;4.05;3.22;;;8.90;61.40;;;;;;4869673;29;20227;-74
2022/02/24 08:27:19;;;;;;;3.97;3.13;;;9.00;60.90;;;;;;4888995;29;20219;-72
2022/02/24 08:29:46;;;;;;;5.57;3.40;;;9.10;60.00;;;;;;4886644;29;20281;-73
2022/02/24 08:32:13;;;;;;;3.97;3.22;;;9.10;58.90;;;;;;4865357;29;20207;-74
2022/02/24 08:34:40;;;;;;;5.38;3.53;;;9.20;59.00;;;;;;4865811;29;20239;-74
2022/02/24 08:37:08;;;;;;;3.78;2.83;;;9.30;59.10;;;;;;4866593;29;20223;-73
2022/02/24 08:39:35;;;;;;;6.88;3.40;;;9.30;59.10;;;;;;4866693;29;20658;-73
2022/02/24 08:42:02;;;;;;;6.63;3.60;;;9.30;59.10;;;;;;4866239;29;20236;-75
2022/02/24 08:44:29;;;;;;;4.78;3.38;;;9.50;59.20;;;;;;4845079;29;20230;-74
2022/02/24 08:46:56;;;;;;;6.60;3.40;;;9.50;58.80;;;;;;4844517;29;20221;-74
2022/02/24 08:49:23;;;;;;;4.88;3.10;;;9.60;59.30;;;;;;4858838;29;20236;-74
2022/02/24 08:51:50;;;;;;;4.90;2.95;;;9.80;57.90;;;;;;4865033;29;20216;-74
2022/02/24 08:54:18;;;;;;;4.75;3.15;;;10.00;56.10;;;;;;4883937;29;20224;-75
2022/02/24 08:56:45;;;;;;;3.40;2.55;;;10.10;55.80;;;;;;4888318;29;20217;-73
2022/02/24 08:59:12;;;;;;;4.88;3.30;;;10.20;55.10;;;;;;4872438;29;20242;-75
2022/02/24 09:01:39;;;;;;;3.50;3.20;;;10.30;54.50;;;;;;4877987;29;20232;-75
2022/02/24 09:04:06;;;;;;;7.93;3.40;;;10.50;54.40;;;;;;4871770;29;20904;-75
2022/02/24 09:06:32;;;;;;;6.20;3.50;;;10.50;53.50;;;;;;4868089;29;20241;-74
2022/02/24 09:08:59;;;;;;;4.00;2.80;;;10.40;53.90;;;;;;4883338;29;20212;-74
2022/02/24 09:11:27;;;;;;;3.80;2.40;;;10.60;53.50;;;;;;4884986;29;20656;-76
2022/02/24 09:13:54;;;;;;;3.17;2.97;;;10.50;52.80;;;;;;4870556;29;20269;-76
2022/02/24 09:16:21;;;;;;;4.93;2.88;;;10.60;52.20;;;;;;4873785;29;20216;-74
2022/02/24 09:18:49;;;;;;;6.65;3.90;;;10.70;51.80;;;;;;4890592;29;20207;-75
2022/02/24 09:21:16;;;;;;;4.00;3.05;;;10.80;51.50;;;;;;4892292;29;20232;-76
2022/02/24 09:23:42;;;;;;;3.65;3.28;;;10.90;50.80;;;;;;4873267;29;20288;-78
2022/02/24 09:26:09;;;;;;;5.15;3.00;;;11.00;50.20;;;;;;4863529;29;20210;-77
2022/02/24 09:28:38;;;;;;;3.97;2.65;;;11.30;50.50;;;;;;4871983;29;20217;-75
2022/02/24 09:31:05;;;;;;;3.10;2.70;;;11.10;50.20;;;;;;4868463;29;20213;-76
2022/02/24 09:33:32;;;;;;;3.30;3.00;;;11.10;50.30;;;;;;4880138;29;20228;-75
2022/02/24 09:35:59;;;;;;;7.45;2.90;;;11.30;50.10;;;;;;4869220;29;20277;-76
2022/02/24 09:38:26;;;;;;;5.03;3.53;;;11.50;50.60;;;;;;4865390;29;20296;-75
2022/02/24 09:40:56;;;;;;;6.50;3.53;;;11.90;49.10;;;;;;4864329;29;20233;-75
2022/02/24 09:43:27;;;;;;;3.28;2.97;;;12.00;47.60;;;;;;4875717;29;20723;-74
2022/02/24 09:45:59;;;;;;;4.55;2.72;;;12.10;47.60;;;;;;4881357;29;20276;-75
2022/02/24 09:48:29;;;;;;;4.60;2.60;;;12.10;47.40;;;;;;4881204;29;20283;-76
2022/02/24 09:50:57;;;;;;;4.82;2.75;;;12.10;47.10;;;;;;4861587;29;20205;-76
2022/02/24 09:53:26;;;;;;;3.28;2.97;;;11.90;47.60;;;;;;4866869;29;20584;-76
2022/02/24 09:55:53;;;;;;;3.65;2.60;;;11.90;47.60;;;;;;4861910;29;20666;-75
2022/02/24 09:58:21;;;;;;;4.45;2.70;;;12.10;48.00;;;;;;4880019;29;20223;-75
2022/02/24 10:00:48;;;;;;;3.05;2.63;;;12.40;48.10;;;;;;4881526;29;20216;-75
2022/02/24 10:03:31;;;;;;;5.10;2.78;;;12.60;46.70;;;;;;4866607;29;20248;-74
2022/02/24 10:05:59;;;;;;;4.30;2.78;;;12.70;46.40;;;;;;4863755;29;20198;-76
2022/02/24 10:08:30;;;;;;;3.03;2.33;;;12.80;46.20;;;;;;4879864;29;20679;-75
2022/02/24 10:10:58;;;;;;;2.28;1.90;;;12.80;45.50;;;;;;4884754;29;20285;-75
2022/02/24 10:13:26;;;;;;;4.22;2.55;;;12.70;46.00;;;;;;4863418;29;20277;-77
2022/02/24 10:15:55;;;;;;;7.63;3.33;;;12.70;45.30;;;;;;4861609;29;20399;-76
2022/02/24 10:18:25;;;;;;;3.90;2.20;;;12.90;45.50;;;;;;4861557;29;20244;-76
2022/02/24 10:20:55;;;;;;;2.10;1.90;;;13.10;43.90;;;;;;4860396;29;20261;-75
2022/02/24 10:23:31;;;;;;;4.43;2.27;;;13.30;42.60;;;;;;4868177;29;20562;-74
2022/02/24 10:26:02;;;;;;;2.57;1.80;;;13.40;42.70;;;;;;4861013;29;20531;-74
2022/02/24 10:28:40;;;;;;;4.63;1.70;;;13.70;42.80;;;;;;4860859;29;20429;-74
2022/02/24 10:31:09;;;;;;;3.43;2.00;;;13.60;41.80;;;;;;4860779;29;20468;-75
2022/02/24 10:33:38;;;;;;;3.20;2.00;;;13.90;40.70;;;;;;4860532;29;20534;-75
2022/02/24 10:36:21;;;;;;;4.77;2.17;;;14.00;40.80;;;;;;4860366;29;20537;-75
2022/02/24 10:38:59;;;;;;;2.60;1.70;;;14.10;40.00;;;;;;4861155;29;20437;-75
2022/02/24 10:41:28;;;;;;;2.60;2.00;;;14.00;39.90;;;;;;4863361;29;20459;-75
2022/02/24 10:44:12;;;;;;;3.50;1.70;;;13.90;40.00;;;;;;4861351;29;20479;-75
2022/02/24 10:46:39;;;;;;;4.57;2.30;;;13.80;39.90;;;;;;4859544;29;20448;-75
2022/02/24 10:49:06;;;;;;;3.53;1.87;;;13.70;40.10;;;;;;4875131;29;20514;-73
2022/02/24 10:51:36;;;;;;;6.68;2.05;;;13.70;39.60;;;;;;4869226;29;20430;-75
2022/02/24 10:54:05;;;;;;;2.77;1.90;;;13.80;39.60;;;;;;4860449;29;20261;-75
2022/02/24 10:56:33;;;;;;;2.13;1.80;;;13.80;39.20;;;;;;4867822;29;20535;-74
2022/02/24 10:59:00;;;;;;;2.70;2.00;;;13.80;38.40;;;;;;4860512;29;20432;-76
2022/02/24 11:01:29;;;;;;;4.63;1.87;;;13.80;38.50;;;;;;4861539;29;20475;-74
2022/02/24 11:03:57;;;;;;;2.37;1.67;;;13.80;38.00;;;;;;4862974;29;20457;-74
2022/02/24 11:06:26;;;;;;;3.30;1.83;;;13.70;37.50;;;;;;4868456;29;20517;-74
2022/02/24 11:08:56;;;;;;;4.03;2.10;;;13.50;38.40;;;;;;4870962;29;20582;-77
2022/02/24 11:11:25;;;;;;;2.20;1.90;;;13.60;37.30;;;;;;4865201;29;20460;-76
2022/02/24 11:13:53;;;;;;;2.57;2.27;;;13.60;37.50;;;;;;4876733;29;20228;-73
2022/02/24 11:16:21;;;;;;;2.43;1.70;;;13.70;37.40;;;;;;4877951;29;20473;-74
2022/02/24 11:18:48;;;;;;;3.53;2.20;;;14.00;37.30;;;;;;4873036;29;20542;-75
2022/02/24 11:21:18;;;;;;;2.63;1.53;;;14.00;36.80;;;;;;4876467;29;20467;-74
2022/02/24 11:23:47;;;;;;;3.43;1.93;;;14.00;36.70;;;;;;4875033;29;21025;-74
2022/02/24 11:26:40;;;;;;;2.13;1.77;;;14.20;36.40;;;;;;4868658;29;20489;-75
2022/02/24 11:29:16;;;;;;;7.37;2.60;;;14.20;35.90;;;;;;4850808;29;20506;-75
2022/02/24 11:31:55;;;;;;;4.10;2.10;;;14.20;36.30;;;;;;4863531;29;20458;-76
2022/02/24 11:34:55;;;;;;;2.57;2.00;;;14.20;35.60;;;;;;4867612;29;20452;-74
2022/02/24 11:37:23;;;;;;;1.90;1.73;;;14.20;35.40;;;;;;4875173;29;20458;-74
2022/02/24 11:40:00;;;;;;;4.63;2.10;;;14.10;34.70;;;;;;4864010;29;20530;-76
2022/02/24 11:42:30;;;;;;;4.17;2.00;;;14.10;34.30;;;;;;4863304;29;21228;-74
2022/02/24 11:44:58;;;;;;;3.40;1.93;;;14.20;33.90;;;;;;4872068;29;20799;-75
2022/02/24 11:47:24;;;;;;;2.87;1.70;;;14.30;33.50;;;;;;4882297;29;20481;-74
2022/02/24 11:50:28;;;;;;;3.53;1.70;;;14.40;33.50;;;;;;4872319;29;20515;-75
2022/02/24 11:52:55;;;;;;;6.00;2.30;;;14.60;33.80;;;;;;4848851;29;20436;-75
2022/02/24 11:55:51;;;;;;;8.60;1.73;;;14.80;33.90;;;;;;4866735;29;20216;-75
2022/02/24 11:58:41;;;;;;;4.20;1.97;;;14.70;33.80;;;;;;4863759;29;20542;-74
2022/02/24 12:01:12;;;;;;;1.90;1.73;;;15.00;32.80;;;;;;4871675;29;20458;-75
2022/02/24 12:04:02;;;;;;;2.40;1.77;;;15.20;31.90;;;;;;4863574;29;20453;-75
2022/02/24 12:06:54;;;;;;;1.87;1.63;;;15.10;32.40;;;;;;4861046;29;20460;-76
2022/02/24 12:09:34;;;;;;;2.00;1.67;;;15.10;32.00;;;;;;4864206;29;20450;-76
2022/02/24 12:12:08;;;;;;;1.73;1.40;;;15.00;32.20;;;;;;4865875;29;20439;-74
2022/02/24 12:14:46;;;;;;;2.17;1.60;;;14.90;32.80;;;;;;4863551;29;20485;-74
2022/02/24 12:17:14;;;;;;;3.17;1.60;;;14.80;33.00;;;;;;4863432;29;20833;-75
2022/02/24 12:19:44;;;;;;;2.40;1.60;;;14.90;32.60;;;;;;4882481;29;20439;-75
2022/02/24 12:22:17;;;;;;;2.60;1.70;;;14.80;32.90;;;;;;4882315;29;20584;-74
2022/02/24 12:24:47;;;;;;;4.67;1.97;;;14.90;32.60;;;;;;4867156;29;20563;-75
2022/02/24 12:27:47;;;;;;;2.87;2.00;;;14.70;32.40;;;;;;4868765;29;20957;-74
2022/02/24 12:30:25;;;;;;;4.33;1.60;;;14.80;31.90;;;;;;4816086;29;20395;-75
2022/02/24 12:32:56;;;;;;;3.77;1.40;;;14.70;32.60;;;;;;4887193;29;20477;-74
2022/02/24 12:35:25;;;;;;;2.30;1.17;;;14.70;31.30;;;;;;4883103;29;20448;-74
2022/02/24 12:37:53;;;;;;;4.97;1.63;;;14.50;32.10;;;;;;4882590;29;20446;-75
2022/02/24 12:40:27;;;;;;;2.93;1.50;;;14.40;32.50;;;;;;4882178;29;20856;-76
2022/02/24 12:42:54;;;;;;;1.83;1.40;;;14.40;32.30;;;;;;4863257;29;20509;-74
2022/02/24 12:45:23;;;;;;;6.87;1.37;;;14.60;31.80;;;;;;4877246;29;20448;-75
2022/02/24 12:47:51;;;;;;;2.87;1.53;;;14.70;32.10;;;;;;4880357;29;20454;-75
2022/02/24 12:50:23;;;;;;;1.60;1.50;;;14.50;32.40;;;;;;4883664;29;20543;-76
2022/02/24 12:52:50;;;;;;;2.30;1.67;;;14.40;32.70;;;;;;4881366;29;20454;-75
2022/02/24 12:55:20;;;;;;;4.60;1.87;;;14.20;33.40;;;;;;4862797;29;20479;-74
2022/02/24 12:57:47;;;;;;;6.70;2.13;;;14.00;33.20;;;;;;4860043;29;20561;-74
2022/02/24 13:00:15;;;;;;;3.50;1.93;;;13.80;33.00;;;;;;4862237;29;20480;-74
2022/02/24 13:02:43;;;;;;;5.63;1.60;;;13.60;33.70;;;;;;4861621;29;20837;-72